createdAt,value
2023-08-30T00:00:51.670Z,55.60
2023-08-30T00:02:53.620Z,55.60
2023-08-30T00:05:03.402Z,55.60
2023-08-30T00:07:05.173Z,55.70
2023-08-30T00:09:07.019Z,55.70
2023-08-30T00:11:08.937Z,55.70
2023-08-30T00:13:10.723Z,55.70
2023-08-30T00:15:12.690Z,55.70
2023-08-30T00:17:14.921Z,55.70
2023-08-30T00:19:16.924Z,55.80
2023-08-30T00:21:18.789Z,55.80
2023-08-30T00:23:20.607Z,55.80
2023-08-30T00:25:22.493Z,55.80
2023-08-30T00:27:24.449Z,55.70
2023-08-30T00:29:26.601Z,55.80
2023-08-30T00:31:28.486Z,55.80
2023-08-30T00:33:30.433Z,55.90
2023-08-30T00:35:32.460Z,55.90
2023-08-30T00:37:34.345Z,55.80
2023-08-30T00:39:39.019Z,55.80
2023-08-30T00:41:41.626Z,55.90
2023-08-30T00:43:43.460Z,55.90
2023-08-30T00:45:45.815Z,55.90
2023-08-30T00:47:47.906Z,55.90
2023-08-30T00:49:50.213Z,55.90
2023-08-30T00:51:52.948Z,55.90
2023-08-30T00:54:00.244Z,55.90
2023-08-30T00:56:02.687Z,55.90
2023-08-30T00:58:04.909Z,55.90
2023-08-30T01:00:10.333Z,55.90
2023-08-30T01:02:13.374Z,56.00
2023-08-30T01:04:15.680Z,56.00
2023-08-30T01:06:17.825Z,56.00
2023-08-30T01:08:19.776Z,56.00
2023-08-30T01:10:29.389Z,56.00
2023-08-30T01:12:41.451Z,55.90
2023-08-30T01:14:59.050Z,56.00
2023-08-30T01:17:01.942Z,55.90
2023-08-30T01:19:25.647Z,56.00
2023-08-30T01:21:55.792Z,56.00
2023-08-30T01:24:01.764Z,55.90
2023-08-30T01:26:27.772Z,55.90
2023-08-30T01:28:32.564Z,56.00
2023-08-30T01:30:36.305Z,55.90
2023-08-30T01:32:39.901Z,55.90
2023-08-30T01:34:46.376Z,55.90
2023-08-30T01:36:48.936Z,55.90
2023-08-30T01:38:51.430Z,55.90
2023-08-30T01:40:55.833Z,55.90
2023-08-30T01:42:59.122Z,55.90
2023-08-30T01:45:04.342Z,55.90
2023-08-30T01:47:07.530Z,55.90
2023-08-30T01:49:11.092Z,55.90
2023-08-30T01:51:14.596Z,55.90
2023-08-30T01:53:16.868Z,55.90
2023-08-30T01:55:21.361Z,55.90
2023-08-30T01:57:23.284Z,55.90
2023-08-30T01:59:25.770Z,55.90
2023-08-30T02:01:27.840Z,55.90
2023-08-30T02:03:29.635Z,55.90
2023-08-30T02:05:33.178Z,55.90
2023-08-30T02:07:55.050Z,55.90
2023-08-30T02:10:02.939Z,55.90
2023-08-30T02:12:08.793Z,55.90
2023-08-30T02:14:12.331Z,55.90
2023-08-30T02:16:15.503Z,56.00
2023-08-30T02:18:17.808Z,56.40
2023-08-30T02:20:19.924Z,55.90
2023-08-30T02:22:21.771Z,55.90
2023-08-30T02:24:23.678Z,55.90
2023-08-30T02:26:25.900Z,55.90
2023-08-30T02:28:27.845Z,55.90
2023-08-30T02:30:30.525Z,55.90
2023-08-30T02:32:32.392Z,55.90
2023-08-30T02:34:36.715Z,55.90
2023-08-30T02:36:38.596Z,55.90
2023-08-30T02:38:40.394Z,55.80
2023-08-30T02:40:42.246Z,55.90
2023-08-30T02:42:44.063Z,55.90
2023-08-30T02:44:45.869Z,55.90
2023-08-30T02:46:47.712Z,55.90
2023-08-30T02:48:49.622Z,55.90
2023-08-30T02:50:51.537Z,55.90
2023-08-30T02:52:54.049Z,55.90
2023-08-30T02:54:56.294Z,55.80
2023-08-30T02:56:58.160Z,55.80
2023-08-30T02:59:00.005Z,55.80
2023-08-30T03:01:03.852Z,55.90
2023-08-30T03:03:05.972Z,55.80
2023-08-30T03:05:08.247Z,55.90
2023-08-30T03:09:12.813Z,55.80
2023-08-30T03:11:15.094Z,55.90
2023-08-30T03:13:16.929Z,55.80
2023-08-30T03:15:18.785Z,55.90
2023-08-30T03:21:34.205Z,55.80
2023-08-30T03:23:39.575Z,55.80
2023-08-30T03:25:41.416Z,55.80
2023-08-30T03:27:45.443Z,55.80
2023-08-30T03:29:47.304Z,55.80
2023-08-30T03:31:49.072Z,55.80
2023-08-30T03:33:51.269Z,55.80
2023-08-30T03:35:53.149Z,55.80
2023-08-30T03:37:55.533Z,55.80
2023-08-30T03:39:57.467Z,55.80
2023-08-30T03:41:59.400Z,55.80
2023-08-30T03:44:01.283Z,55.80
2023-08-30T03:46:06.843Z,55.80
2023-08-30T03:48:09.035Z,55.80
2023-08-30T03:50:11.223Z,55.80
2023-08-30T03:52:14.052Z,55.80
2023-08-30T03:54:17.641Z,55.90
2023-08-30T03:56:19.482Z,55.80
2023-08-30T03:58:21.360Z,55.90
2023-08-30T04:00:23.200Z,55.90
2023-08-30T04:02:25.046Z,55.90
2023-08-30T04:04:26.895Z,55.90
2023-08-30T04:06:28.720Z,55.90
2023-08-30T04:08:30.732Z,56.00
2023-08-30T04:10:37.054Z,55.90
2023-08-30T04:12:38.907Z,56.00
2023-08-30T04:14:40.704Z,56.00
2023-08-30T04:16:42.552Z,56.00
2023-08-30T04:18:44.434Z,56.00
2023-08-30T04:20:47.600Z,56.00
2023-08-30T04:22:49.389Z,56.00
2023-08-30T04:24:51.303Z,56.10
2023-08-30T04:26:54.337Z,56.10
2023-08-30T04:28:56.222Z,56.20
2023-08-30T04:30:58.221Z,56.10
2023-08-30T04:33:00.657Z,56.10
2023-08-30T04:35:02.567Z,56.10
2023-08-30T04:37:04.839Z,56.10
2023-08-30T04:39:07.385Z,56.10
2023-08-30T04:41:09.222Z,56.10
2023-08-30T04:43:11.246Z,56.10
2023-08-30T04:45:13.035Z,56.10
2023-08-30T04:47:14.913Z,56.20
2023-08-30T04:49:16.749Z,56.20
2023-08-30T04:51:18.627Z,56.20
2023-08-30T04:53:20.572Z,56.20
2023-08-30T04:55:22.392Z,56.20
2023-08-30T04:57:24.343Z,56.20
2023-08-30T04:59:26.301Z,56.20
2023-08-30T05:01:28.093Z,56.30
2023-08-30T05:03:32.804Z,56.30
2023-08-30T05:05:35.894Z,56.30
2023-08-30T05:07:37.746Z,56.30
2023-08-30T05:09:41.576Z,56.30
2023-08-30T05:11:43.633Z,56.40
2023-08-30T05:13:45.529Z,56.30
2023-08-30T05:15:47.366Z,56.40
2023-08-30T05:17:49.351Z,56.40
2023-08-30T05:19:51.375Z,56.40
2023-08-30T05:21:55.996Z,56.40
2023-08-30T05:23:57.921Z,56.50
2023-08-30T05:25:59.956Z,56.50
2023-08-30T05:28:01.843Z,56.50
2023-08-30T05:30:04.395Z,56.50
2023-08-30T05:32:06.625Z,56.50
2023-08-30T05:34:08.575Z,56.50
2023-08-30T05:36:10.403Z,56.50
2023-08-30T05:38:12.646Z,56.50
2023-08-30T05:40:18.060Z,56.50
2023-08-30T05:42:19.917Z,56.50
2023-08-30T05:44:21.810Z,56.60
2023-08-30T05:46:23.742Z,56.60
2023-08-30T05:48:25.719Z,56.60
2023-08-30T05:50:27.613Z,56.60
2023-08-30T05:52:29.595Z,56.70
2023-08-30T05:54:32.633Z,56.70
2023-08-30T05:56:34.608Z,56.70
2023-08-30T05:58:36.741Z,56.70
2023-08-30T06:00:38.904Z,56.70
2023-08-30T06:02:41.540Z,56.70
2023-08-30T06:04:43.435Z,56.80
2023-08-30T06:06:45.269Z,56.80
2023-08-30T06:08:47.314Z,56.80
2023-08-30T06:10:49.214Z,56.80
2023-08-30T06:12:51.057Z,56.80
2023-08-30T06:14:53.748Z,56.80
2023-08-30T06:16:55.613Z,56.80
2023-08-30T06:18:59.893Z,56.90
2023-08-30T06:21:01.679Z,56.90
2023-08-30T06:23:04.664Z,56.90
2023-08-30T06:25:07.931Z,56.90
2023-08-30T06:27:10.105Z,56.90
2023-08-30T06:29:11.899Z,56.90
2023-08-30T06:31:15.492Z,57.00
2023-08-30T06:33:17.662Z,57.00
2023-08-30T06:35:19.559Z,57.00
2023-08-30T06:37:21.546Z,57.00
2023-08-30T06:39:23.689Z,57.10
2023-08-30T06:41:25.554Z,57.10
2023-08-30T06:43:27.485Z,57.00
2023-08-30T06:45:29.494Z,57.10
2023-08-30T06:47:31.344Z,57.20
2023-08-30T06:49:33.174Z,57.00
2023-08-30T06:51:35.111Z,57.10
2023-08-30T06:53:36.950Z,57.10
2023-08-30T06:55:38.895Z,57.10
2023-08-30T06:57:41.080Z,57.10
2023-08-30T06:59:43.576Z,57.10
2023-08-30T07:01:45.493Z,57.10
2023-08-30T07:03:47.398Z,57.20
2023-08-30T07:05:49.255Z,57.10
2023-08-30T07:07:51.180Z,57.10
2023-08-30T07:09:53.228Z,57.20
2023-08-30T07:11:55.776Z,57.10
2023-08-30T07:13:57.680Z,57.10
2023-08-30T07:15:59.651Z,57.10
2023-08-30T07:18:01.668Z,57.20
2023-08-30T07:20:05.998Z,57.20
2023-08-30T07:22:07.816Z,57.20
2023-08-30T07:24:10.151Z,57.20
2023-08-30T07:26:11.920Z,57.30
2023-08-30T07:28:13.720Z,57.20
2023-08-30T07:30:15.567Z,57.20
2023-08-30T07:32:17.378Z,57.30
2023-08-30T07:34:19.140Z,57.30
2023-08-30T07:36:24.101Z,57.20
2023-08-30T07:38:30.072Z,57.30
2023-08-30T07:40:32.079Z,57.30
2023-08-30T07:42:33.920Z,57.80
2023-08-30T07:44:35.722Z,57.30
2023-08-30T07:46:37.506Z,57.30
2023-08-30T07:48:39.272Z,57.30
2023-08-30T07:50:41.069Z,57.30
2023-08-30T07:52:45.698Z,57.30
2023-08-30T07:54:48.298Z,57.20
2023-08-30T07:56:50.249Z,57.20
2023-08-30T07:58:52.038Z,57.20
2023-08-30T08:00:54.414Z,57.10
2023-08-30T08:02:56.333Z,57.10
2023-08-30T08:04:58.240Z,57.20
2023-08-30T08:07:02.465Z,57.20
2023-08-30T08:09:04.992Z,57.10
2023-08-30T08:11:06.876Z,57.20
2023-08-30T08:13:09.442Z,57.10
2023-08-30T08:15:11.561Z,57.30
2023-08-30T08:17:13.402Z,57.30
2023-08-30T08:19:15.291Z,57.40
2023-08-30T08:21:17.337Z,57.50
2023-08-30T08:23:19.262Z,57.50
2023-08-30T08:25:22.078Z,57.90
2023-08-30T08:27:26.213Z,57.60
2023-08-30T08:29:32.010Z,57.70
2023-08-30T08:31:33.909Z,57.60
2023-08-30T08:33:37.000Z,57.60
2023-08-30T08:35:38.814Z,57.80
2023-08-30T08:37:40.714Z,57.80
2023-08-30T08:39:44.314Z,58.40
2023-08-30T08:41:46.892Z,57.70
2023-08-30T08:43:49.565Z,57.50
2023-08-30T08:45:51.876Z,58.20
2023-08-30T08:47:54.016Z,58.10
2023-08-30T08:49:55.882Z,57.70
2023-08-30T08:51:58.290Z,57.60
2023-08-30T08:54:06.580Z,57.60
2023-08-30T08:56:11.878Z,57.30
2023-08-30T08:58:15.857Z,57.60
2023-08-30T09:00:17.807Z,57.40
2023-08-30T09:02:20.611Z,57.50
2023-08-30T09:04:23.185Z,57.00
2023-08-30T09:06:25.308Z,57.10
2023-08-30T09:08:28.048Z,56.90
2023-08-30T09:10:30.042Z,56.70
2023-08-30T09:12:36.402Z,56.40
2023-08-30T09:14:38.200Z,56.40
2023-08-30T09:16:40.059Z,56.40
2023-08-30T09:18:44.763Z,56.20
2023-08-30T09:20:50.223Z,56.00
2023-08-30T09:22:52.253Z,56.10
2023-08-30T09:24:54.104Z,55.80
2023-08-30T09:26:56.439Z,55.70
2023-08-30T09:29:07.539Z,55.70
2023-08-30T09:31:23.036Z,55.70
2023-08-30T09:33:33.180Z,55.50
2023-08-30T09:35:44.579Z,55.40
2023-08-30T09:37:46.960Z,55.20
2023-08-30T09:39:52.887Z,55.00
2023-08-30T09:41:55.771Z,55.10
2023-08-30T09:44:11.704Z,54.90
2023-08-30T09:46:15.486Z,54.80
2023-08-30T09:48:23.338Z,54.70
2023-08-30T09:50:25.401Z,55.10
2023-08-30T09:52:31.342Z,54.60
2023-08-30T09:57:00.861Z,54.50
2023-08-30T09:59:04.728Z,54.60
2023-08-30T10:01:06.935Z,54.40
2023-08-30T10:05:14.356Z,54.20
2023-08-30T10:07:18.719Z,54.20
2023-08-30T10:09:21.035Z,53.90
2023-08-30T10:11:24.665Z,53.80
2023-08-30T10:13:26.837Z,53.70
2023-08-30T10:15:30.757Z,53.90
2023-08-30T10:17:39.143Z,54.00
2023-08-30T10:19:42.459Z,53.90
2023-08-30T10:21:45.360Z,53.40
2023-08-30T10:23:50.746Z,53.20
2023-08-30T10:25:54.404Z,53.20
2023-08-30T10:27:57.343Z,53.20
2023-08-30T10:30:00.632Z,53.00
2023-08-30T10:32:06.593Z,52.70
2023-08-30T10:34:18.326Z,52.80
2023-08-30T10:36:24.948Z,52.50
2023-08-30T10:38:28.721Z,52.90
2023-08-30T10:40:30.563Z,52.80
2023-08-30T10:42:33.164Z,52.40
2023-08-30T10:44:35.250Z,52.40
2023-08-30T10:46:38.797Z,52.50
2023-08-30T10:48:43.927Z,52.60
2023-08-30T10:50:45.796Z,52.60
2023-08-30T10:52:57.067Z,52.50
2023-08-30T10:55:11.712Z,52.40
2023-08-30T10:57:15.965Z,52.10
2023-08-30T10:59:21.485Z,52.30
2023-08-30T11:01:24.242Z,52.20
2023-08-30T11:03:26.984Z,52.00
2023-08-30T11:05:31.104Z,52.10
2023-08-30T11:07:33.112Z,52.00
2023-08-30T11:09:36.351Z,51.90
2023-08-30T11:11:39.399Z,52.00
2023-08-30T11:13:41.263Z,52.20
2023-08-30T11:15:43.223Z,52.00
2023-08-30T11:17:45.700Z,53.00
2023-08-30T11:19:52.524Z,53.10
2023-08-30T11:21:55.620Z,52.70
2023-08-30T11:23:57.708Z,52.30
2023-08-30T11:25:59.680Z,52.30
2023-08-30T11:28:05.143Z,52.20
2023-08-30T11:30:09.319Z,52.30
2023-08-30T11:32:12.083Z,52.00
2023-08-30T11:34:14.709Z,52.00
2023-08-30T11:36:21.166Z,51.70
2023-08-30T11:38:23.034Z,51.40
2023-08-30T11:40:25.329Z,51.40
2023-08-30T11:42:27.494Z,51.80
2023-08-30T11:44:30.221Z,51.30
2023-08-30T11:46:33.187Z,51.10
2023-08-30T11:48:35.778Z,51.10
2023-08-30T11:50:47.311Z,50.90
2023-08-30T11:52:51.308Z,51.70
2023-08-30T11:54:53.909Z,51.50
2023-08-30T11:56:56.307Z,51.30
2023-08-30T11:58:58.244Z,51.10
2023-08-30T12:01:00.393Z,50.90
2023-08-30T12:03:02.620Z,50.60
2023-08-30T12:05:05.078Z,50.50
2023-08-30T12:07:07.131Z,50.30
2023-08-30T12:09:14.220Z,50.50
2023-08-30T12:11:20.924Z,50.30
2023-08-30T12:13:24.821Z,50.70
2023-08-30T12:15:28.874Z,50.20
2023-08-30T12:17:30.752Z,50.20
2023-08-30T12:19:33.224Z,50.20
2023-08-30T12:21:41.772Z,50.20
2023-08-30T12:23:43.825Z,50.10
2023-08-30T12:25:45.743Z,50.50
2023-08-30T12:27:48.840Z,50.20
2023-08-30T12:29:51.808Z,50.10
2023-08-30T12:31:54.454Z,50.10
2023-08-30T12:33:56.464Z,50.20
2023-08-30T12:35:59.003Z,50.00
2023-08-30T12:38:01.035Z,50.40
2023-08-30T12:40:02.938Z,50.40
2023-08-30T12:42:06.641Z,50.50
2023-08-30T12:44:08.453Z,50.00
2023-08-30T12:46:10.858Z,49.90
2023-08-30T12:48:15.304Z,49.80
2023-08-30T12:50:17.107Z,49.90
2023-08-30T12:52:19.022Z,50.10
2023-08-30T12:54:20.876Z,50.30
2023-08-30T12:56:22.723Z,50.00
2023-08-30T12:58:25.007Z,49.70
2023-08-30T13:00:27.263Z,49.70
2023-08-30T13:02:29.229Z,49.50
2023-08-30T13:04:31.133Z,49.80
2023-08-30T13:06:33.117Z,49.70
2023-08-30T13:08:35.063Z,49.90
2023-08-30T13:10:37.017Z,50.00
2023-08-30T13:12:41.777Z,50.30
2023-08-30T13:14:44.859Z,50.20
2023-08-30T13:16:46.844Z,50.20
2023-08-30T13:18:49.355Z,49.60
2023-08-30T13:20:51.261Z,50.10
2023-08-30T13:22:53.074Z,50.50
2023-08-30T13:24:55.195Z,50.20
2023-08-30T13:26:56.984Z,49.70
2023-08-30T13:29:00.070Z,50.00
2023-08-30T13:31:04.049Z,50.00
2023-08-30T13:33:06.544Z,50.10
2023-08-30T13:35:08.832Z,50.20
2023-08-30T13:37:10.645Z,50.30
2023-08-30T13:39:12.548Z,50.20
2023-08-30T13:41:14.428Z,50.30
2023-08-30T13:43:16.406Z,50.60
2023-08-30T13:45:18.400Z,50.30
2023-08-30T13:47:21.030Z,50.70
2023-08-30T13:49:22.954Z,50.40
2023-08-30T13:51:26.846Z,50.40
2023-08-30T13:53:29.236Z,50.40
2023-08-30T13:55:32.155Z,50.20
2023-08-30T13:57:33.953Z,49.80
2023-08-30T13:59:36.677Z,49.90
2023-08-30T14:01:38.595Z,49.80
2023-08-30T14:03:40.486Z,49.70
2023-08-30T14:05:42.384Z,49.40
2023-08-30T14:07:46.143Z,49.10
2023-08-30T14:09:48.089Z,49.20
2023-08-30T14:11:51.221Z,48.90
2023-08-30T14:13:53.394Z,48.80
2023-08-30T14:15:56.476Z,48.70
2023-08-30T14:17:58.609Z,48.90
2023-08-30T14:20:00.515Z,49.20
2023-08-30T14:22:05.032Z,49.10
2023-08-30T14:24:08.146Z,49.50
2023-08-30T14:26:10.631Z,49.50
2023-08-30T14:28:12.756Z,49.10
2023-08-30T14:30:15.072Z,49.30
2023-08-30T14:32:17.001Z,49.30
2023-08-30T14:34:18.904Z,49.50
2023-08-30T14:36:20.718Z,49.30
2023-08-30T14:38:22.579Z,48.90
2023-08-30T14:40:24.496Z,49.10
2023-08-30T14:42:27.097Z,49.10
2023-08-30T14:44:28.980Z,49.10
2023-08-30T14:46:30.897Z,48.90
2023-08-30T14:48:33.564Z,48.90
2023-08-30T14:50:35.394Z,48.40
2023-08-30T14:52:37.181Z,48.60
2023-08-30T14:54:39.003Z,48.60
2023-08-30T14:56:40.998Z,48.70
2023-08-30T14:58:43.489Z,48.30
2023-08-30T15:00:50.958Z,48.30
2023-08-30T15:02:52.954Z,48.40
2023-08-30T15:04:55.000Z,48.40
2023-08-30T15:06:56.809Z,48.40
2023-08-30T15:08:59.209Z,48.30
2023-08-30T15:11:01.160Z,48.50
2023-08-30T15:13:03.302Z,48.70
2023-08-30T15:15:05.602Z,48.10
2023-08-30T15:17:07.669Z,48.30
2023-08-30T15:19:09.586Z,48.40
2023-08-30T15:21:11.405Z,48.50
2023-08-30T15:23:20.735Z,48.40
2023-08-30T15:25:22.786Z,48.10
2023-08-30T15:27:24.826Z,48.00
2023-08-30T15:29:26.744Z,48.00
2023-08-30T15:31:28.735Z,48.40
2023-08-30T15:33:30.616Z,48.00
2023-08-30T15:35:32.606Z,47.90
2023-08-30T15:37:34.446Z,48.20
2023-08-30T15:39:36.307Z,47.80
2023-08-30T15:41:38.256Z,47.90
2023-08-30T15:43:40.864Z,47.70
2023-08-30T15:45:43.829Z,47.80
2023-08-30T15:47:45.804Z,47.60
2023-08-30T15:49:47.736Z,47.80
2023-08-30T15:51:49.686Z,47.80
2023-08-30T15:53:52.405Z,47.90
2023-08-30T15:55:54.408Z,48.30
2023-08-30T15:57:56.427Z,48.30
2023-08-30T15:59:58.280Z,47.80
2023-08-30T16:02:00.206Z,47.70
2023-08-30T16:04:02.535Z,48.00
2023-08-30T16:06:04.808Z,48.00
2023-08-30T16:08:06.931Z,48.10
2023-08-30T16:10:09.286Z,48.00
2023-08-30T16:12:11.163Z,48.00
2023-08-30T16:14:13.025Z,48.10
2023-08-30T16:16:15.632Z,47.80
2023-08-30T16:18:17.434Z,47.50
2023-08-30T16:20:19.638Z,47.10
2023-08-30T16:22:21.785Z,47.90
2023-08-30T16:24:28.705Z,47.20
2023-08-30T16:26:30.510Z,47.90
2023-08-30T16:28:32.570Z,47.60
2023-08-30T16:30:35.727Z,47.60
2023-08-30T16:32:37.867Z,47.60
2023-08-30T16:34:40.207Z,47.60
2023-08-30T16:36:42.346Z,47.50
2023-08-30T16:38:44.193Z,47.70
2023-08-30T16:40:46.034Z,47.70
2023-08-30T16:42:50.178Z,47.70
2023-08-30T16:44:52.386Z,47.80
2023-08-30T16:46:54.307Z,47.50
2023-08-30T16:48:56.201Z,47.50
2023-08-30T16:50:58.073Z,47.70
2023-08-30T16:53:00.097Z,47.60
2023-08-30T16:55:01.893Z,47.50
2023-08-30T16:57:03.831Z,47.40
2023-08-30T16:59:05.763Z,47.30
2023-08-30T17:01:11.447Z,47.30
2023-08-30T17:03:14.555Z,47.00
2023-08-30T17:05:16.891Z,47.10
2023-08-30T17:07:18.802Z,47.30
2023-08-30T17:09:20.609Z,47.10
2023-08-30T17:11:22.477Z,47.20
2023-08-30T17:13:24.345Z,47.50
2023-08-30T17:15:27.493Z,47.50
2023-08-30T17:17:29.363Z,47.40
2023-08-30T17:19:31.316Z,47.60
2023-08-30T17:21:33.285Z,47.60
2023-08-30T17:23:35.448Z,47.50
2023-08-30T17:25:37.620Z,47.60
2023-08-30T17:27:40.633Z,47.40
2023-08-30T17:29:42.491Z,47.70
2023-08-30T17:31:44.460Z,48.00
2023-08-30T17:33:46.424Z,47.80
2023-08-30T17:35:48.238Z,47.80
2023-08-30T17:37:50.074Z,47.90
2023-08-30T17:39:51.974Z,47.90
2023-08-30T17:41:54.211Z,47.80
2023-08-30T17:43:56.122Z,47.90
2023-08-30T17:45:58.033Z,47.90
2023-08-30T17:48:00.485Z,48.00
2023-08-30T17:52:09.194Z,48.00
2023-08-30T17:56:21.692Z,48.10
2023-08-30T17:58:31.193Z,48.20
2023-08-30T18:00:33.077Z,48.20
2023-08-30T18:02:34.902Z,48.20
2023-08-30T18:04:36.869Z,48.20
2023-08-30T18:06:38.768Z,48.10
2023-08-30T18:08:42.689Z,48.30
2023-08-30T18:10:44.693Z,48.20
2023-08-30T18:12:46.501Z,48.40
2023-08-30T18:14:48.513Z,48.30
2023-08-30T18:16:50.354Z,48.20
2023-08-30T18:18:54.646Z,48.20
2023-08-30T18:20:57.401Z,48.30
2023-08-30T18:22:59.237Z,48.30
2023-08-30T18:27:07.883Z,48.30
2023-08-30T18:29:09.889Z,48.30
2023-08-30T18:31:11.800Z,48.60
2023-08-30T18:33:14.508Z,48.50
2023-08-30T18:35:18.227Z,48.70
2023-08-30T18:37:20.019Z,48.70
2023-08-30T18:39:23.268Z,48.80
2023-08-30T18:43:27.502Z,49.50
2023-08-30T18:45:29.477Z,48.90
2023-08-30T18:47:31.453Z,48.80
2023-08-30T18:55:50.480Z,49.00
2023-08-30T18:57:52.359Z,49.00
2023-08-30T18:59:54.237Z,49.10
2023-08-30T19:01:56.121Z,49.10
2023-08-30T19:03:58.691Z,49.10
2023-08-30T19:06:00.746Z,49.10
2023-08-30T19:08:03.186Z,49.20
2023-08-30T19:10:05.391Z,49.20
2023-08-30T19:12:07.731Z,49.20
2023-08-30T19:14:09.787Z,49.30
2023-08-30T19:16:11.669Z,49.30
2023-08-30T19:18:13.499Z,49.40
2023-08-30T19:20:15.699Z,49.40
2023-08-30T19:22:20.456Z,49.50
2023-08-30T19:24:22.311Z,49.50
2023-08-30T19:26:28.975Z,49.60
2023-08-30T19:28:31.183Z,49.70
2023-08-30T19:30:33.197Z,49.70
2023-08-30T19:32:35.326Z,49.70
2023-08-30T19:34:37.466Z,49.80
2023-08-30T19:36:39.448Z,49.90
2023-08-30T19:38:42.134Z,49.90
2023-08-30T19:40:54.815Z,49.90
2023-08-30T19:42:57.105Z,50.00
2023-08-30T19:44:59.678Z,50.00
2023-08-30T19:47:05.343Z,50.10
2023-08-30T19:49:07.894Z,50.10
2023-08-30T19:51:09.713Z,50.10
2023-08-30T19:53:13.084Z,50.20
2023-08-30T19:55:15.934Z,50.20
2023-08-30T19:57:18.665Z,50.30
2023-08-30T19:59:21.426Z,50.20
2023-08-30T20:01:23.701Z,50.30
2023-08-30T20:03:25.933Z,50.40
2023-08-30T20:05:28.349Z,50.30
2023-08-30T20:07:30.236Z,50.30
2023-08-30T20:09:38.041Z,50.30
2023-08-30T20:11:40.969Z,50.40
2023-08-30T20:13:44.524Z,50.40
2023-08-30T20:15:57.181Z,50.40
2023-08-30T20:17:59.956Z,50.50
2023-08-30T20:20:02.073Z,50.50
2023-08-30T20:22:04.355Z,50.50
2023-08-30T20:24:06.641Z,50.50
2023-08-30T20:26:10.777Z,50.50
2023-08-30T20:28:13.287Z,50.60
2023-08-30T20:30:15.790Z,50.60
2023-08-30T20:32:20.008Z,50.60
2023-08-30T20:34:21.890Z,50.70
2023-08-30T20:36:34.572Z,50.70
2023-08-30T20:38:41.813Z,50.70
2023-08-30T20:40:44.859Z,50.70
2023-08-30T20:42:47.396Z,50.70
2023-08-30T20:44:49.495Z,50.70
2023-08-30T20:46:51.572Z,50.70
2023-08-30T20:48:53.474Z,50.80
2023-08-30T20:51:01.350Z,50.90
2023-08-30T20:53:05.527Z,50.90
2023-08-30T20:55:08.245Z,50.90
2023-08-30T20:57:10.318Z,50.90
2023-08-30T20:59:12.109Z,50.90
2023-08-30T21:01:15.289Z,50.90
2023-08-30T21:03:20.910Z,51.20
2023-08-30T21:05:24.292Z,50.90
2023-08-30T21:07:26.283Z,50.90
2023-08-30T21:09:28.289Z,50.90
2023-08-30T21:11:30.212Z,51.00
2023-08-30T21:13:32.059Z,51.00
2023-08-30T21:15:34.341Z,51.00
2023-08-30T21:17:36.695Z,51.10
2023-08-30T21:19:38.593Z,51.60
2023-08-30T21:21:40.511Z,51.10
2023-08-30T21:23:42.633Z,51.10
2023-08-30T21:25:44.773Z,51.20
2023-08-30T21:27:46.648Z,51.10
2023-08-30T21:29:48.490Z,51.10
2023-08-30T21:31:50.746Z,51.10
2023-08-30T21:33:55.130Z,51.20
2023-08-30T21:35:57.054Z,51.20
2023-08-30T21:37:58.860Z,51.20
2023-08-30T21:40:01.237Z,51.20
2023-08-30T21:42:03.702Z,51.20
2023-08-30T21:44:05.859Z,51.30
2023-08-30T21:46:08.192Z,51.20
2023-08-30T21:48:10.740Z,51.30
2023-08-30T21:50:13.961Z,51.40
2023-08-30T21:52:16.172Z,51.40
2023-08-30T21:54:18.008Z,51.40
2023-08-30T21:56:19.954Z,51.40
2023-08-30T21:58:21.870Z,51.40
2023-08-30T22:00:23.825Z,51.40
2023-08-30T22:02:25.790Z,51.40
2023-08-30T22:04:27.693Z,51.40
2023-08-30T22:06:29.543Z,51.50
2023-08-30T22:08:31.389Z,51.50
2023-08-30T22:10:33.424Z,51.50
2023-08-30T22:12:35.361Z,51.50
2023-08-30T22:14:47.799Z,51.50
2023-08-30T22:16:52.052Z,51.60
2023-08-30T22:18:54.291Z,51.60
2023-08-30T22:20:57.310Z,51.50
2023-08-30T22:22:59.196Z,51.70
2023-08-30T22:25:01.152Z,51.60
2023-08-30T22:27:03.150Z,51.60
2023-08-30T22:29:05.104Z,51.60
2023-08-30T22:31:07.625Z,51.60
2023-08-30T22:33:09.952Z,51.70
2023-08-30T22:35:14.208Z,51.70
2023-08-30T22:37:16.024Z,51.70
2023-08-30T22:39:17.911Z,51.70
2023-08-30T22:41:19.793Z,51.70
2023-08-30T22:43:21.814Z,51.80
2023-08-30T22:45:23.802Z,51.80
2023-08-30T22:47:26.726Z,51.80
2023-08-30T22:49:28.785Z,51.80
2023-08-30T22:51:33.431Z,51.90
2023-08-30T22:53:37.470Z,51.80
2023-08-30T22:55:39.365Z,51.90
2023-08-30T22:57:41.218Z,51.90
2023-08-30T22:59:43.210Z,51.90
2023-08-30T23:01:47.040Z,52.00
2023-08-30T23:03:48.943Z,51.90
2023-08-30T23:05:51.806Z,51.90
2023-08-30T23:07:54.666Z,51.90
2023-08-30T23:09:56.458Z,51.90
2023-08-30T23:11:58.383Z,52.00
2023-08-30T23:14:02.253Z,51.90
2023-08-30T23:16:04.437Z,52.00
2023-08-30T23:18:06.584Z,52.00
2023-08-30T23:20:09.028Z,51.90
2023-08-30T23:22:11.010Z,51.90
2023-08-30T23:24:14.605Z,52.00
2023-08-30T23:26:17.161Z,52.00
2023-08-30T23:28:19.341Z,52.00
2023-08-30T23:30:21.242Z,52.00
2023-08-30T23:32:23.145Z,52.00
2023-08-30T23:34:25.173Z,52.00
2023-08-30T23:36:27.771Z,52.00
2023-08-30T23:38:29.954Z,52.00
2023-08-30T23:40:33.007Z,52.10
2023-08-30T23:42:35.023Z,52.10
2023-08-30T23:44:36.979Z,52.10
2023-08-30T23:46:38.822Z,52.20
2023-08-30T23:48:40.649Z,52.10
2023-08-30T23:50:43.405Z,52.80
2023-08-30T23:52:46.107Z,52.20
2023-08-30T23:54:48.002Z,52.20
2023-08-30T23:56:49.842Z,52.10
2023-08-30T23:58:51.668Z,52.30
